createdAt,value
2024-03-22T00:00:46.618Z,95660.00
2024-03-22T00:01:46.604Z,95660.00
2024-03-22T00:02:46.702Z,95660.00
2024-03-22T00:03:46.688Z,95659.00
2024-03-22T00:04:47.042Z,95662.00
2024-03-22T00:05:46.816Z,95664.00
2024-03-22T00:06:46.918Z,95664.00
2024-03-22T00:07:46.927Z,95661.00
2024-03-22T00:08:46.935Z,95662.00
2024-03-22T00:09:46.938Z,95662.00
2024-03-22T00:10:46.982Z,95659.00
2024-03-22T00:11:47.024Z,95660.00
2024-03-22T00:12:47.037Z,95658.00
2024-03-22T00:13:47.078Z,95656.00
2024-03-22T00:14:47.118Z,95658.00
2024-03-22T00:15:47.122Z,95659.00
2024-03-22T00:16:47.165Z,95658.00
2024-03-22T00:17:47.241Z,95660.00
2024-03-22T00:18:47.254Z,95659.00
2024-03-22T00:19:47.280Z,95658.00
2024-03-22T00:20:47.344Z,95657.00
2024-03-22T00:21:47.397Z,95658.00
2024-03-22T00:22:47.509Z,95658.00
2024-03-22T00:23:47.450Z,95658.00
2024-03-22T00:24:47.464Z,95659.00
2024-03-22T00:25:47.488Z,95662.00
2024-03-22T00:26:47.508Z,95662.00
2024-03-22T00:27:47.623Z,95662.00
2024-03-22T00:28:47.606Z,95665.00
2024-03-22T00:29:47.559Z,95663.00
2024-03-22T00:30:47.647Z,95664.00
2024-03-22T00:31:47.648Z,95665.00
2024-03-22T00:32:48.116Z,95664.00
2024-03-22T00:33:47.716Z,95661.00
2024-03-22T00:34:47.721Z,95662.00
2024-03-22T00:35:47.782Z,95663.00
2024-03-22T00:36:47.844Z,95661.00
2024-03-22T00:37:47.823Z,95660.00
2024-03-22T00:38:47.853Z,95662.00
2024-03-22T00:39:47.832Z,95661.00
2024-03-22T00:40:47.875Z,95662.00
2024-03-22T00:41:47.902Z,95662.00
2024-03-22T00:42:47.924Z,95660.00
2024-03-22T00:43:47.939Z,95660.00
2024-03-22T00:44:47.924Z,95661.00
2024-03-22T00:45:47.932Z,95659.00
2024-03-22T00:46:47.975Z,95657.00
2024-03-22T00:47:48.058Z,95657.00
2024-03-22T00:48:47.961Z,95656.00
2024-03-22T00:49:47.972Z,95654.00
2024-03-22T00:50:47.978Z,95650.00
2024-03-22T00:51:47.985Z,95650.00
2024-03-22T00:52:48.019Z,95650.00
2024-03-22T00:53:48.000Z,95649.00
2024-03-22T00:54:47.988Z,95647.00
2024-03-22T00:55:48.019Z,95650.00
2024-03-22T00:56:48.566Z,95644.00
2024-03-22T00:57:48.050Z,95643.00
2024-03-22T00:58:48.124Z,95639.00
2024-03-22T00:59:48.124Z,95639.00
2024-03-22T01:00:48.150Z,95638.00
2024-03-22T01:01:48.177Z,95637.00
2024-03-22T01:02:48.193Z,95637.00
2024-03-22T01:03:48.203Z,95637.00
2024-03-22T01:04:48.196Z,95636.00
2024-03-22T01:05:48.243Z,95634.00
2024-03-22T01:06:48.277Z,95634.00
2024-03-22T01:07:50.521Z,95634.00
2024-03-22T01:08:48.264Z,95631.00
2024-03-22T01:09:48.307Z,95630.00
2024-03-22T01:10:48.305Z,95629.00
2024-03-22T01:11:48.287Z,95630.00
2024-03-22T01:12:48.294Z,95630.00
2024-03-22T01:13:48.261Z,95629.00
2024-03-22T01:14:48.290Z,95631.00
2024-03-22T01:15:48.276Z,95631.00
2024-03-22T01:16:48.283Z,95632.00
2024-03-22T01:17:48.291Z,95632.00
2024-03-22T01:18:48.298Z,95632.00
2024-03-22T01:19:48.273Z,95633.00
2024-03-22T01:20:48.307Z,95633.00
2024-03-22T01:21:48.323Z,95634.00
2024-03-22T01:22:48.285Z,95634.00
2024-03-22T01:23:48.298Z,95633.00
2024-03-22T01:24:48.299Z,95635.00
2024-03-22T01:25:48.277Z,95637.00
2024-03-22T01:26:48.283Z,95636.00
2024-03-22T01:27:48.288Z,95633.00
2024-03-22T01:28:48.302Z,95634.00
2024-03-22T01:29:48.301Z,95633.00
2024-03-22T01:30:48.297Z,95633.00
2024-03-22T01:31:48.309Z,95635.00
2024-03-22T01:32:48.367Z,95635.00
2024-03-22T01:33:48.297Z,95634.00
2024-03-22T01:34:48.301Z,95633.00
2024-03-22T01:35:48.342Z,95632.00
2024-03-22T01:36:48.386Z,95634.00
2024-03-22T01:37:48.319Z,95632.00
2024-03-22T01:38:48.308Z,95630.00
2024-03-22T01:39:48.303Z,95628.00
2024-03-22T01:40:48.378Z,95630.00
2024-03-22T01:41:48.318Z,95629.00
2024-03-22T01:42:48.314Z,95631.00
2024-03-22T01:43:48.315Z,95632.00
2024-03-22T01:44:48.326Z,95632.00
2024-03-22T01:45:48.340Z,95633.00
2024-03-22T01:46:48.316Z,95633.00
2024-03-22T01:47:48.313Z,95631.00
2024-03-22T01:48:48.330Z,95632.00
2024-03-22T01:49:48.325Z,95628.00
2024-03-22T01:50:48.312Z,95628.00
2024-03-22T01:51:48.311Z,95630.00
2024-03-22T01:52:48.324Z,95629.00
2024-03-22T01:53:48.330Z,95627.00
2024-03-22T01:54:48.338Z,95627.00
2024-03-22T01:55:48.303Z,95624.00
2024-03-22T01:56:48.315Z,95627.00
2024-03-22T01:57:48.331Z,95625.00
2024-03-22T01:58:48.341Z,95622.00
2024-03-22T01:59:48.331Z,95621.00
2024-03-22T02:00:48.382Z,95620.00
2024-03-22T02:01:48.370Z,95621.00
2024-03-22T02:02:48.357Z,95620.00
2024-03-22T02:03:48.374Z,95621.00
2024-03-22T02:04:48.325Z,95620.00
2024-03-22T02:05:48.453Z,95620.00
2024-03-22T02:06:48.343Z,95617.00
2024-03-22T02:07:48.354Z,95617.00
2024-03-22T02:08:48.366Z,95614.00
2024-03-22T02:09:48.350Z,95613.00
2024-03-22T02:10:48.337Z,95610.00
2024-03-22T02:11:48.342Z,95609.00
2024-03-22T02:12:48.348Z,95610.00
2024-03-22T02:13:48.338Z,95611.00
2024-03-22T02:14:48.343Z,95610.00
2024-03-22T02:15:48.358Z,95610.00
2024-03-22T02:16:48.359Z,95606.00
2024-03-22T02:17:48.383Z,95607.00
2024-03-22T02:18:48.355Z,95605.00
2024-03-22T02:19:48.372Z,95605.00
2024-03-22T02:20:48.354Z,95604.00
2024-03-22T02:21:48.390Z,95601.00
2024-03-22T02:22:48.354Z,95598.00
2024-03-22T02:23:48.354Z,95597.00
2024-03-22T02:24:48.378Z,95595.00
2024-03-22T02:25:48.377Z,95595.00
2024-03-22T02:26:48.355Z,95591.00
2024-03-22T02:27:48.423Z,95591.00
2024-03-22T02:28:48.406Z,95588.00
2024-03-22T02:29:48.408Z,95589.00
2024-03-22T02:30:48.381Z,95589.00
2024-03-22T02:31:48.350Z,95589.00
2024-03-22T02:32:48.391Z,95588.00
2024-03-22T02:33:48.380Z,95587.00
2024-03-22T02:34:56.003Z,95586.00
2024-03-22T02:35:49.370Z,95584.00
2024-03-22T02:36:48.399Z,95582.00
2024-03-22T02:37:48.388Z,95580.00
2024-03-22T02:38:48.398Z,95576.00
2024-03-22T02:39:48.372Z,95572.00
2024-03-22T02:40:48.377Z,95572.00
2024-03-22T02:41:48.397Z,95570.00
2024-03-22T02:42:48.401Z,95568.00
2024-03-22T02:43:48.414Z,95564.00
2024-03-22T02:44:48.473Z,95567.00
2024-03-22T02:45:48.397Z,95568.00
2024-03-22T02:46:48.383Z,95566.00
2024-03-22T02:47:48.392Z,95565.00
2024-03-22T02:48:48.401Z,95565.00
2024-03-22T02:49:48.399Z,95565.00
2024-03-22T02:50:48.412Z,95562.00
2024-03-22T02:51:48.422Z,95561.00
2024-03-22T02:52:48.400Z,95561.00
2024-03-22T02:53:48.398Z,95561.00
2024-03-22T02:54:48.418Z,95564.00
2024-03-22T02:55:48.416Z,95566.00
2024-03-22T02:56:48.416Z,95566.00
2024-03-22T02:57:48.425Z,95564.00
2024-03-22T02:58:48.406Z,95563.00
2024-03-22T02:59:48.450Z,95562.00
2024-03-22T03:00:48.408Z,95563.00
2024-03-22T03:01:48.421Z,95561.00
2024-03-22T03:02:48.430Z,95559.00
2024-03-22T03:03:48.424Z,95557.00
2024-03-22T03:04:48.444Z,95557.00
2024-03-22T03:05:48.420Z,95557.00
2024-03-22T03:06:48.455Z,95555.00
2024-03-22T03:07:48.465Z,95557.00
2024-03-22T03:08:48.466Z,95557.00
2024-03-22T03:09:48.452Z,95555.00
2024-03-22T03:10:48.488Z,95556.00
2024-03-22T03:11:48.416Z,95554.00
2024-03-22T03:12:49.080Z,95554.00
2024-03-22T03:13:48.428Z,95553.00
2024-03-22T03:14:48.437Z,95553.00
2024-03-22T03:15:48.454Z,95551.00
2024-03-22T03:16:48.418Z,95550.00
2024-03-22T03:17:48.432Z,95552.00
2024-03-22T03:18:48.431Z,95551.00
2024-03-22T03:19:48.464Z,95550.00
2024-03-22T03:20:48.470Z,95551.00
2024-03-22T03:21:48.422Z,95554.00
2024-03-22T03:22:48.510Z,95553.00
2024-03-22T03:23:48.473Z,95553.00
2024-03-22T03:24:48.446Z,95555.00
2024-03-22T03:25:48.443Z,95554.00
2024-03-22T03:26:48.442Z,95554.00
2024-03-22T03:27:48.460Z,95552.00
2024-03-22T03:28:48.458Z,95553.00
2024-03-22T03:29:48.467Z,95552.00
2024-03-22T03:30:48.469Z,95553.00
2024-03-22T03:31:48.491Z,95553.00
2024-03-22T03:32:48.455Z,95552.00
2024-03-22T03:33:48.502Z,95550.00
2024-03-22T03:34:48.503Z,95550.00
2024-03-22T03:35:48.443Z,95550.00
2024-03-22T03:36:48.484Z,95551.00
2024-03-22T03:37:48.485Z,95551.00
2024-03-22T03:38:48.524Z,95554.00
2024-03-22T03:39:48.570Z,95553.00
2024-03-22T03:40:48.576Z,95552.00
2024-03-22T03:41:48.574Z,95553.00
2024-03-22T03:42:48.563Z,95553.00
2024-03-22T03:43:48.598Z,95557.00
2024-03-22T03:44:48.613Z,95558.00
2024-03-22T03:45:48.632Z,95559.00
2024-03-22T03:46:48.685Z,95557.00
2024-03-22T03:47:48.666Z,95560.00
2024-03-22T03:48:48.700Z,95559.00
2024-03-22T03:49:48.702Z,95558.00
2024-03-22T03:50:48.713Z,95559.00
2024-03-22T03:51:48.749Z,95557.00
2024-03-22T03:52:48.772Z,95557.00
2024-03-22T03:53:48.777Z,95559.00
2024-03-22T03:54:48.778Z,95555.00
2024-03-22T03:55:48.786Z,95557.00
2024-03-22T03:56:48.874Z,95560.00
2024-03-22T03:57:48.867Z,95560.00
2024-03-22T03:58:48.858Z,95559.00
2024-03-22T03:59:48.855Z,95555.00
2024-03-22T04:00:49.132Z,95558.00
2024-03-22T04:01:48.938Z,95550.00
2024-03-22T04:02:48.900Z,95552.00
2024-03-22T04:03:48.957Z,95549.00
2024-03-22T04:04:48.947Z,95549.00
2024-03-22T04:05:48.957Z,95551.00
2024-03-22T04:06:49.010Z,95550.00
2024-03-22T04:07:49.038Z,95551.00
2024-03-22T04:08:49.040Z,95553.00
2024-03-22T04:09:49.100Z,95555.00
2024-03-22T04:10:49.063Z,95553.00
2024-03-22T04:11:49.109Z,95554.00
2024-03-22T04:12:49.112Z,95553.00
2024-03-22T04:13:49.187Z,95549.00
2024-03-22T04:14:49.199Z,95552.00
2024-03-22T04:15:49.229Z,95549.00
2024-03-22T04:16:49.204Z,95551.00
2024-03-22T04:17:49.251Z,95552.00
2024-03-22T04:18:49.257Z,95552.00
2024-03-22T04:19:49.330Z,95552.00
2024-03-22T04:20:49.332Z,95549.00
2024-03-22T04:21:49.308Z,95548.00
2024-03-22T04:22:49.334Z,95547.00
2024-03-22T04:23:49.348Z,95544.00
2024-03-22T04:24:49.403Z,95544.00
2024-03-22T04:25:49.413Z,95545.00
2024-03-22T04:26:49.413Z,95545.00
2024-03-22T04:27:49.449Z,95546.00
2024-03-22T04:28:56.715Z,95546.00
2024-03-22T04:29:56.670Z,95545.00
2024-03-22T04:30:56.672Z,95544.00
2024-03-22T04:32:03.911Z,95546.00
2024-03-22T04:33:03.936Z,95542.00
2024-03-22T04:34:03.907Z,95548.00
2024-03-22T04:35:03.940Z,95545.00
2024-03-22T04:36:03.870Z,95549.00
2024-03-22T04:37:03.871Z,95550.00
2024-03-22T04:38:03.944Z,95551.00
2024-03-22T04:39:03.935Z,95554.00
2024-03-22T04:40:03.912Z,95555.00
2024-03-22T04:41:03.918Z,95558.00
2024-03-22T04:42:03.952Z,95560.00
2024-03-22T04:43:03.896Z,95560.00
2024-03-22T04:44:04.128Z,95562.00
2024-03-22T04:45:03.943Z,95559.00
2024-03-22T04:46:03.887Z,95561.00
2024-03-22T04:47:03.893Z,95559.00
2024-03-22T04:48:03.904Z,95558.00
2024-03-22T04:49:03.899Z,95559.00
2024-03-22T04:50:03.898Z,95558.00
2024-03-22T04:51:03.942Z,95561.00
2024-03-22T04:52:03.953Z,95561.00
2024-03-22T04:53:03.882Z,95561.00
2024-03-22T04:54:03.935Z,95563.00
2024-03-22T04:55:03.994Z,95562.00
2024-03-22T04:56:03.918Z,95564.00
2024-03-22T04:57:03.884Z,95565.00
2024-03-22T04:58:03.963Z,95565.00
2024-03-22T04:59:03.922Z,95566.00
2024-03-22T05:00:03.932Z,95568.00
2024-03-22T05:01:03.952Z,95568.00
2024-03-22T05:02:03.943Z,95562.00
2024-03-22T05:03:03.942Z,95564.00
2024-03-22T05:04:03.952Z,95563.00
2024-03-22T05:05:03.961Z,95565.00
2024-03-22T05:06:03.969Z,95564.00
2024-03-22T05:07:03.920Z,95566.00
2024-03-22T05:08:03.931Z,95569.00
2024-03-22T05:09:03.937Z,95570.00
2024-03-22T05:10:03.941Z,95571.00
2024-03-22T05:11:03.946Z,95571.00
2024-03-22T05:12:03.973Z,95573.00
2024-03-22T05:13:03.915Z,95574.00
2024-03-22T05:14:03.916Z,95573.00
2024-03-22T05:15:03.946Z,95575.00
2024-03-22T05:16:03.935Z,95575.00
2024-03-22T05:17:03.984Z,95574.00
2024-03-22T05:18:03.949Z,95574.00
2024-03-22T05:19:03.950Z,95576.00
2024-03-22T05:20:04.389Z,95572.00
2024-03-22T05:21:03.981Z,95572.00
2024-03-22T05:22:03.971Z,95572.00
2024-03-22T05:23:03.957Z,95571.00
2024-03-22T05:24:03.955Z,95569.00
2024-03-22T05:25:03.947Z,95572.00
2024-03-22T05:26:03.948Z,95572.00
2024-03-22T05:27:04.010Z,95571.00
2024-03-22T05:28:49.682Z,95573.00
2024-03-22T05:29:49.644Z,95572.00
2024-03-22T05:30:49.644Z,95571.00
2024-03-22T05:31:49.677Z,95573.00
2024-03-22T05:32:49.666Z,95575.00
2024-03-22T05:33:49.661Z,95575.00
2024-03-22T05:34:49.670Z,95576.00
2024-03-22T05:35:49.735Z,95578.00
2024-03-22T05:36:49.691Z,95579.00
2024-03-22T05:37:49.703Z,95579.00
2024-03-22T05:38:49.699Z,95578.00
2024-03-22T05:39:49.706Z,95576.00
2024-03-22T05:40:49.670Z,95574.00
2024-03-22T05:41:49.667Z,95574.00
2024-03-22T05:42:49.675Z,95574.00
2024-03-22T05:43:49.709Z,95577.00
2024-03-22T05:44:49.670Z,95576.00
2024-03-22T05:45:49.693Z,95575.00
2024-03-22T05:46:49.701Z,95576.00
2024-03-22T05:47:49.710Z,95576.00
2024-03-22T05:48:49.688Z,95575.00
2024-03-22T05:49:50.135Z,95573.00
2024-03-22T05:50:49.669Z,95573.00
2024-03-22T05:51:49.657Z,95574.00
2024-03-22T05:52:49.692Z,95574.00
2024-03-22T05:53:49.650Z,95573.00
2024-03-22T05:54:49.708Z,95571.00
2024-03-22T05:55:49.666Z,95573.00
2024-03-22T05:56:49.672Z,95570.00
2024-03-22T05:57:49.683Z,95569.00
2024-03-22T05:58:49.673Z,95571.00
2024-03-22T05:59:49.685Z,95572.00
2024-03-22T06:00:49.698Z,95571.00
2024-03-22T06:01:49.705Z,95569.00
2024-03-22T06:02:49.687Z,95571.00
2024-03-22T06:03:49.763Z,95572.00
2024-03-22T06:04:49.694Z,95575.00
2024-03-22T06:05:49.789Z,95574.00
2024-03-22T06:06:49.685Z,95574.00
2024-03-22T06:07:49.694Z,95576.00
2024-03-22T06:08:49.724Z,95575.00
2024-03-22T06:09:49.769Z,95576.00
2024-03-22T06:10:49.718Z,95574.00
2024-03-22T06:11:49.744Z,95571.00
2024-03-22T06:12:49.726Z,95570.00
2024-03-22T06:13:49.733Z,95570.00
2024-03-22T06:14:49.750Z,95571.00
2024-03-22T06:15:49.798Z,95570.00
2024-03-22T06:16:49.821Z,95571.00
2024-03-22T06:17:49.817Z,95571.00
2024-03-22T06:18:49.825Z,95571.00
2024-03-22T06:19:49.874Z,95572.00
2024-03-22T06:20:49.902Z,95574.00
2024-03-22T06:21:49.942Z,95569.00
2024-03-22T06:22:49.947Z,95569.00
2024-03-22T06:23:49.975Z,95569.00
2024-03-22T06:24:50.020Z,95567.00
2024-03-22T06:25:50.029Z,95570.00
2024-03-22T06:26:50.030Z,95568.00
2024-03-22T06:27:50.054Z,95568.00
2024-03-22T06:28:50.094Z,95570.00
2024-03-22T06:29:50.103Z,95569.00
2024-03-22T06:30:50.162Z,95561.00
2024-03-22T06:31:50.157Z,95559.00
2024-03-22T06:32:50.192Z,95558.00
2024-03-22T06:33:50.188Z,95561.00
2024-03-22T06:34:50.243Z,95560.00
2024-03-22T06:35:50.325Z,95558.00
2024-03-22T06:36:50.318Z,95560.00
2024-03-22T06:37:50.362Z,95556.00
2024-03-22T06:38:50.661Z,95556.00
2024-03-22T06:39:50.437Z,95555.00
2024-03-22T06:40:50.536Z,95554.00
2024-03-22T06:41:50.592Z,95548.00
2024-03-22T06:42:50.659Z,95550.00
2024-03-22T06:43:50.675Z,95548.00
2024-03-22T06:44:50.778Z,95547.00
2024-03-22T06:45:50.900Z,95553.00
2024-03-22T06:46:50.835Z,95550.00
2024-03-22T06:47:50.869Z,95550.00
2024-03-22T06:48:50.950Z,95549.00
2024-03-22T06:49:51.302Z,95550.00
2024-03-22T06:50:50.926Z,95542.00
2024-03-22T06:51:51.024Z,95542.00
2024-03-22T06:52:51.081Z,95541.00
2024-03-22T06:53:53.439Z,95542.00
2024-03-22T06:54:51.293Z,95542.00
2024-03-22T06:55:51.257Z,95539.00
2024-03-22T06:56:51.269Z,95538.00
2024-03-22T06:57:51.328Z,95536.00
2024-03-22T06:58:51.833Z,95531.00
2024-03-22T06:59:51.378Z,95533.00
2024-03-22T07:00:51.391Z,95531.00
2024-03-22T07:01:51.400Z,95533.00
2024-03-22T07:02:52.376Z,95531.00
2024-03-22T07:03:51.837Z,95531.00
2024-03-22T07:04:51.899Z,95529.00
2024-03-22T07:05:52.337Z,95529.00
2024-03-22T07:06:51.488Z,95527.00
2024-03-22T07:07:51.456Z,95525.00
2024-03-22T07:08:51.449Z,95523.00
2024-03-22T07:09:51.801Z,95524.00
2024-03-22T07:10:51.496Z,95518.00
2024-03-22T07:11:51.485Z,95517.00
2024-03-22T07:12:51.510Z,95515.00
2024-03-22T07:13:51.521Z,95515.00
2024-03-22T07:14:51.856Z,95516.00
2024-03-22T07:15:51.541Z,95515.00
2024-03-22T07:16:51.562Z,95515.00
2024-03-22T07:17:51.746Z,95513.00
2024-03-22T07:18:51.553Z,95516.00
2024-03-22T07:19:51.577Z,95516.00
2024-03-22T07:20:51.622Z,95511.00
2024-03-22T07:21:51.850Z,95540.00
2024-03-22T07:22:51.595Z,95514.00
2024-03-22T07:23:51.981Z,95517.00
2024-03-22T07:24:51.552Z,95514.00
2024-03-22T07:25:51.551Z,95514.00
2024-03-22T07:26:51.812Z,95505.00
2024-03-22T07:27:54.343Z,95505.00
2024-03-22T07:28:51.622Z,95507.00
2024-03-22T07:29:51.659Z,95504.00
2024-03-22T07:30:51.684Z,95508.00
2024-03-22T07:31:51.788Z,95506.00
2024-03-22T07:32:51.754Z,95504.00
2024-03-22T07:33:51.680Z,95504.00
2024-03-22T07:34:51.643Z,95499.00
2024-03-22T07:35:51.854Z,95498.00
2024-03-22T07:36:51.636Z,95497.00
2024-03-22T07:37:51.663Z,95493.00
2024-03-22T07:38:51.749Z,95493.00
2024-03-22T07:39:51.660Z,95490.00
2024-03-22T07:40:51.810Z,95489.00
2024-03-22T07:41:51.703Z,95491.00
2024-03-22T07:42:51.980Z,95484.00
2024-03-22T07:43:52.131Z,95483.00
2024-03-22T07:44:52.937Z,95483.00
2024-03-22T07:45:51.911Z,95483.00
2024-03-22T07:46:51.644Z,95482.00
2024-03-22T07:47:51.671Z,95485.00
2024-03-22T07:48:51.754Z,95485.00
2024-03-22T07:49:51.679Z,95485.00
2024-03-22T07:50:51.858Z,95484.00
2024-03-22T07:51:51.701Z,95485.00
2024-03-22T07:52:51.714Z,95481.00
2024-03-22T07:53:51.698Z,95481.00
2024-03-22T07:54:51.758Z,95481.00
2024-03-22T07:55:51.994Z,95482.00
2024-03-22T07:56:51.841Z,95481.00
2024-03-22T07:57:51.970Z,95480.00
2024-03-22T07:58:51.714Z,95480.00
2024-03-22T07:59:51.869Z,95477.00
2024-03-22T08:00:51.856Z,95477.00
2024-03-22T08:01:51.708Z,95476.00
2024-03-22T08:02:51.736Z,95474.00
2024-03-22T08:03:51.685Z,95470.00
2024-03-22T08:04:51.737Z,95471.00
2024-03-22T08:05:51.932Z,95469.00
2024-03-22T08:06:51.835Z,95467.00
2024-03-22T08:07:51.690Z,95468.00
2024-03-22T08:08:51.780Z,95466.00
2024-03-22T08:09:51.764Z,95466.00
2024-03-22T08:10:51.821Z,95467.00
2024-03-22T08:11:51.930Z,95467.00
2024-03-22T08:12:52.368Z,95464.00
2024-03-22T08:13:51.938Z,95462.00
2024-03-22T08:14:52.003Z,95460.00
2024-03-22T08:15:52.151Z,95458.00
2024-03-22T08:16:52.113Z,95453.00
2024-03-22T08:17:52.351Z,95449.00
2024-03-22T08:18:52.457Z,95447.00
2024-03-22T08:19:52.284Z,95446.00
2024-03-22T08:20:52.365Z,95445.00
2024-03-22T08:21:53.251Z,95443.00
2024-03-22T08:22:52.409Z,95440.00
2024-03-22T08:23:52.819Z,95442.00
2024-03-22T08:24:53.329Z,95436.00
2024-03-22T08:25:52.486Z,95439.00
2024-03-22T08:26:52.856Z,95437.00
2024-03-22T08:28:01.086Z,95435.00
2024-03-22T08:28:53.666Z,95435.00
2024-03-22T08:29:52.698Z,95432.00
2024-03-22T08:30:53.433Z,95432.00
2024-03-22T08:31:52.570Z,95428.00
2024-03-22T08:32:52.588Z,95427.00
2024-03-22T08:33:52.642Z,95428.00
2024-03-22T08:34:52.618Z,95426.00
2024-03-22T08:35:54.641Z,95425.00
2024-03-22T08:36:52.875Z,95429.00
2024-03-22T08:37:52.775Z,95431.00
2024-03-22T08:38:52.795Z,95430.00
2024-03-22T08:39:53.354Z,95430.00
2024-03-22T08:40:52.825Z,95429.00
2024-03-22T08:41:52.805Z,95426.00
2024-03-22T08:42:52.871Z,95420.00
2024-03-22T08:43:52.880Z,95420.00
2024-03-22T08:44:52.953Z,95416.00
2024-03-22T08:45:52.874Z,95414.00
2024-03-22T08:46:52.864Z,95414.00
2024-03-22T08:47:52.885Z,95407.00
2024-03-22T08:48:52.883Z,95409.00
2024-03-22T08:49:52.960Z,95409.00
2024-03-22T08:50:52.981Z,95406.00
2024-03-22T08:51:53.395Z,95407.00
2024-03-22T08:52:52.936Z,95405.00
2024-03-22T08:53:53.146Z,95401.00
2024-03-22T08:54:53.094Z,95401.00
2024-03-22T08:55:53.118Z,95400.00
2024-03-22T08:56:53.206Z,95400.00
2024-03-22T08:57:58.057Z,95399.00
2024-03-22T08:58:54.281Z,95398.00
2024-03-22T08:59:53.338Z,95395.00
2024-03-22T09:00:53.305Z,95394.00
2024-03-22T09:01:53.282Z,95392.00
2024-03-22T09:02:53.375Z,95391.00
2024-03-22T09:03:53.306Z,95389.00
2024-03-22T09:04:53.279Z,95390.00
2024-03-22T09:06:00.778Z,95390.00
2024-03-22T09:06:54.308Z,95385.00
2024-03-22T09:07:53.358Z,95384.00
2024-03-22T09:08:53.334Z,95383.00
2024-03-22T09:09:53.302Z,95382.00
2024-03-22T09:10:53.350Z,95378.00
2024-03-22T09:11:53.405Z,95374.00
2024-03-22T09:12:53.313Z,95371.00
2024-03-22T09:13:53.336Z,95371.00
2024-03-22T09:14:53.372Z,95371.00
2024-03-22T09:15:53.450Z,95370.00
2024-03-22T09:16:53.553Z,95369.00
2024-03-22T09:17:54.049Z,95369.00
2024-03-22T09:18:53.594Z,95367.00
2024-03-22T09:19:53.891Z,95364.00
2024-03-22T09:20:53.866Z,95363.00
2024-03-22T09:21:53.761Z,95361.00
2024-03-22T09:22:53.845Z,95357.00
2024-03-22T09:23:53.929Z,95355.00
2024-03-22T09:24:53.919Z,95351.00
2024-03-22T09:25:53.986Z,95352.00
2024-03-22T09:26:54.123Z,95350.00
2024-03-22T09:27:54.138Z,95346.00
2024-03-22T09:28:54.258Z,95343.00
2024-03-22T09:29:54.266Z,95341.00
2024-03-22T09:30:57.968Z,95339.00
2024-03-22T09:31:54.277Z,95337.00
2024-03-22T09:32:54.292Z,95337.00
2024-03-22T09:33:54.321Z,95333.00
2024-03-22T09:34:54.396Z,95332.00
2024-03-22T09:35:54.742Z,95330.00
2024-03-22T09:36:54.346Z,95328.00
2024-03-22T09:37:54.308Z,95329.00
2024-03-22T09:38:54.369Z,95327.00
2024-03-22T09:39:54.335Z,95326.00
2024-03-22T09:40:54.372Z,95324.00
2024-03-22T09:41:54.882Z,95322.00
2024-03-22T09:42:54.299Z,95320.00
2024-03-22T09:43:54.316Z,95318.00
2024-03-22T09:44:54.442Z,95324.00
2024-03-22T09:45:54.531Z,95323.00
2024-03-22T09:46:54.320Z,95320.00
2024-03-22T09:47:54.872Z,95319.00
2024-03-22T09:48:54.317Z,95317.00
2024-03-22T09:49:54.397Z,95313.00
2024-03-22T09:50:54.331Z,95312.00
2024-03-22T09:51:54.372Z,95309.00
2024-03-22T09:52:54.384Z,95309.00
2024-03-22T09:53:54.504Z,95308.00
2024-03-22T09:54:54.358Z,95307.00
2024-03-22T09:55:54.329Z,95302.00
2024-03-22T09:56:54.957Z,95300.00
2024-03-22T09:57:54.501Z,95300.00
2024-03-22T09:58:54.404Z,95297.00
2024-03-22T09:59:55.894Z,95294.00
2024-03-22T10:00:54.893Z,95292.00
2024-03-22T10:01:54.537Z,95291.00
2024-03-22T10:02:54.768Z,95289.00
2024-03-22T10:03:54.729Z,95288.00
2024-03-22T10:04:54.755Z,95285.00
2024-03-22T10:05:54.942Z,95282.00
2024-03-22T10:06:54.880Z,95281.00
2024-03-22T10:07:54.968Z,95282.00
2024-03-22T10:08:55.055Z,95278.00
2024-03-22T10:09:56.322Z,95277.00
2024-03-22T10:10:55.150Z,95275.00
2024-03-22T10:11:55.210Z,95274.00
2024-03-22T10:12:55.877Z,95273.00
2024-03-22T10:13:55.311Z,95269.00
2024-03-22T10:14:55.390Z,95267.00
2024-03-22T10:15:55.394Z,95266.00
2024-03-22T10:16:57.844Z,95264.00
2024-03-22T10:17:55.549Z,95257.00
2024-03-22T10:18:55.653Z,95256.00
2024-03-22T10:19:55.617Z,95254.00
2024-03-22T10:20:55.894Z,95247.00
2024-03-22T10:21:55.780Z,95247.00
2024-03-22T10:22:55.775Z,95246.00
2024-03-22T10:23:55.863Z,95245.00
2024-03-22T10:24:56.429Z,95242.00
2024-03-22T10:25:56.023Z,95239.00
2024-03-22T10:26:55.947Z,95242.00
2024-03-22T10:27:56.080Z,95238.00
2024-03-22T10:28:56.105Z,95240.00
2024-03-22T10:29:56.178Z,95235.00
2024-03-22T10:30:56.263Z,95240.00
2024-03-22T10:31:56.526Z,95239.00
2024-03-22T10:32:56.374Z,95235.00
2024-03-22T10:33:56.402Z,95232.00
2024-03-22T10:34:57.905Z,95233.00
2024-03-22T10:35:56.434Z,95229.00
2024-03-22T10:36:56.997Z,95224.00
2024-03-22T10:37:56.511Z,95219.00
2024-03-22T10:38:56.488Z,95220.00
2024-03-22T10:39:56.513Z,95219.00
2024-03-22T10:40:56.510Z,95217.00
2024-03-22T10:41:56.611Z,95213.00
2024-03-22T10:42:56.539Z,95213.00
2024-03-22T10:43:56.651Z,95211.00
2024-03-22T10:44:56.895Z,95210.00
2024-03-22T10:45:58.626Z,95207.00
2024-03-22T10:46:56.822Z,95205.00
2024-03-22T10:47:56.764Z,95205.00
2024-03-22T10:48:57.478Z,95205.00
2024-03-22T10:49:56.884Z,95201.00
2024-03-22T10:50:57.104Z,95199.00
2024-03-22T10:51:57.447Z,95194.00
2024-03-22T10:52:57.045Z,95196.00
2024-03-22T10:53:57.143Z,95191.00
2024-03-22T10:54:57.419Z,95189.00
2024-03-22T10:55:57.231Z,95188.00
2024-03-22T10:56:57.340Z,95184.00
2024-03-22T10:57:57.303Z,95182.00
2024-03-22T10:58:57.394Z,95182.00
2024-03-22T10:59:57.458Z,95178.00
2024-03-22T11:00:57.400Z,95178.00
2024-03-22T11:01:57.517Z,95175.00
2024-03-22T11:02:57.504Z,95171.00
2024-03-22T11:03:57.991Z,95167.00
2024-03-22T11:04:57.533Z,95164.00
2024-03-22T11:05:57.618Z,95162.00
2024-03-22T11:06:57.919Z,95160.00
2024-03-22T11:07:57.629Z,95157.00
2024-03-22T11:08:57.703Z,95153.00
2024-03-22T11:09:57.905Z,95154.00
2024-03-22T11:10:57.710Z,95149.00
2024-03-22T11:11:59.614Z,95148.00
2024-03-22T11:12:57.933Z,95146.00
2024-03-22T11:13:57.786Z,95143.00
2024-03-22T11:14:57.771Z,95141.00
2024-03-22T11:15:57.755Z,95138.00
2024-03-22T11:16:57.868Z,95133.00
2024-03-22T11:17:59.602Z,95132.00
2024-03-22T11:18:57.803Z,95131.00
2024-03-22T11:19:57.799Z,95128.00
2024-03-22T11:20:57.859Z,95125.00
2024-03-22T11:21:57.828Z,95124.00
2024-03-22T11:22:57.837Z,95125.00
2024-03-22T11:23:57.985Z,95120.00
2024-03-22T11:24:57.960Z,95117.00
2024-03-22T11:25:57.997Z,95116.00
2024-03-22T11:26:57.989Z,95114.00
2024-03-22T11:27:57.962Z,95112.00
2024-03-22T11:28:58.011Z,95110.00
2024-03-22T11:29:57.986Z,95110.00
2024-03-22T11:30:58.395Z,95113.00
2024-03-22T11:31:57.980Z,95109.00
2024-03-22T11:32:57.965Z,95109.00
2024-03-22T11:33:57.976Z,95106.00
2024-03-22T11:34:57.981Z,95103.00
2024-03-22T11:35:58.414Z,95101.00
2024-03-22T11:36:58.041Z,95098.00
2024-03-22T11:37:58.044Z,95094.00
2024-03-22T11:38:58.949Z,95092.00
2024-03-22T11:39:58.060Z,95089.00
2024-03-22T11:40:58.080Z,95088.00
2024-03-22T11:41:58.105Z,95084.00
2024-03-22T11:42:58.113Z,95083.00
2024-03-22T11:43:58.178Z,95081.00
2024-03-22T11:44:58.134Z,95078.00
2024-03-22T11:45:58.119Z,95073.00